sensor_id;sensor_type;location;lat;lon;timestamp;temperature;humidity
59311;DHT22;45078;51.654;21.250;2022-11-15T00:01:17;6.00;99.90
59311;DHT22;45078;51.654;21.250;2022-11-15T00:03:43;6.00;99.90
59311;DHT22;45078;51.654;21.250;2022-11-15T00:06:09;6.00;99.90
59311;DHT22;45078;51.654;21.250;2022-11-15T00:08:35;6.00;99.90
59311;DHT22;45078;51.654;21.250;2022-11-15T00:11:02;6.00;99.90
59311;DHT22;45078;51.654;21.250;2022-11-15T00:13:29;6.00;99.90
59311;DHT22;45078;51.654;21.250;2022-11-15T00:15:59;6.00;99.90
59311;DHT22;45078;51.654;21.250;2022-11-15T00:18:26;6.00;99.90
59311;DHT22;45078;51.654;21.250;2022-11-15T00:20:51;6.10;99.90
59311;DHT22;45078;51.654;21.250;2022-11-15T00:23:18;6.10;99.90
59311;DHT22;45078;51.654;21.250;2022-11-15T00:25:43;6.10;99.90
59311;DHT22;45078;51.654;21.250;2022-11-15T00:28:09;6.20;99.90
59311;DHT22;45078;51.654;21.250;2022-11-15T00:30:35;6.20;99.90
59311;DHT22;45078;51.654;21.250;2022-11-15T00:33:05;6.20;99.90
59311;DHT22;45078;51.654;21.250;2022-11-15T00:35:32;6.10;99.90
59311;DHT22;45078;51.654;21.250;2022-11-15T00:37:59;5.90;99.90
59311;DHT22;45078;51.654;21.250;2022-11-15T00:40:25;5.80;99.90
59311;DHT22;45078;51.654;21.250;2022-11-15T00:42:51;5.80;99.90
59311;DHT22;45078;51.654;21.250;2022-11-15T00:45:17;5.90;99.90
59311;DHT22;45078;51.654;21.250;2022-11-15T00:47:46;5.90;99.90
59311;DHT22;45078;51.654;21.250;2022-11-15T00:50:12;5.80;99.90
59311;DHT22;45078;51.654;21.250;2022-11-15T00:52:39;5.90;99.90
59311;DHT22;45078;51.654;21.250;2022-11-15T00:55:05;5.90;99.90
59311;DHT22;45078;51.654;21.250;2022-11-15T00:57:31;5.80;99.90
59311;DHT22;45078;51.654;21.250;2022-11-15T00:59:56;5.80;99.90
59311;DHT22;45078;51.654;21.250;2022-11-15T01:02:22;5.80;99.90
59311;DHT22;45078;51.654;21.250;2022-11-15T01:04:48;5.70;99.90
59311;DHT22;45078;51.654;21.250;2022-11-15T01:07:14;5.70;99.90
59311;DHT22;45078;51.654;21.250;2022-11-15T01:09:40;5.70;99.90
59311;DHT22;45078;51.654;21.250;2022-11-15T01:12:05;5.60;99.90
59311;DHT22;45078;51.654;21.250;2022-11-15T01:14:31;5.70;99.90
59311;DHT22;45078;51.654;21.250;2022-11-15T01:16:57;5.60;99.90
59311;DHT22;45078;51.654;21.250;2022-11-15T01:19:23;5.60;99.90
59311;DHT22;45078;51.654;21.250;2022-11-15T01:21:49;5.60;99.90
59311;DHT22;45078;51.654;21.250;2022-11-15T01:24:16;5.60;99.90
59311;DHT22;45078;51.654;21.250;2022-11-15T01:26:42;5.60;99.90
59311;DHT22;45078;51.654;21.250;2022-11-15T01:29:07;5.60;99.90
59311;DHT22;45078;51.654;21.250;2022-11-15T01:31:33;5.50;99.90
59311;DHT22;45078;51.654;21.250;2022-11-15T01:33:59;5.50;99.90
59311;DHT22;45078;51.654;21.250;2022-11-15T01:36:25;5.60;99.90
59311;DHT22;45078;51.654;21.250;2022-11-15T01:38:55;5.60;99.90
59311;DHT22;45078;51.654;21.250;2022-11-15T01:41:24;5.60;99.90
59311;DHT22;45078;51.654;21.250;2022-11-15T01:43:55;5.60;99.90
59311;DHT22;45078;51.654;21.250;2022-11-15T01:46:34;5.50;99.90
59311;DHT22;45078;51.654;21.250;2022-11-15T01:49:21;5.60;99.90
59311;DHT22;45078;51.654;21.250;2022-11-15T01:51:47;5.50;99.90
59311;DHT22;45078;51.654;21.250;2022-11-15T01:54:15;5.50;99.90
59311;DHT22;45078;51.654;21.250;2022-11-15T01:57:06;5.50;99.90
59311;DHT22;45078;51.654;21.250;2022-11-15T01:59:33;5.50;99.90
59311;DHT22;45078;51.654;21.250;2022-11-15T02:02:00;5.50;99.90
59311;DHT22;45078;51.654;21.250;2022-11-15T02:04:28;5.60;99.90
59311;DHT22;45078;51.654;21.250;2022-11-15T02:06:55;5.60;99.90
59311;DHT22;45078;51.654;21.250;2022-11-15T02:09:21;5.60;99.90
59311;DHT22;45078;51.654;21.250;2022-11-15T02:11:48;5.50;99.90
59311;DHT22;45078;51.654;21.250;2022-11-15T02:14:18;5.50;99.90
59311;DHT22;45078;51.654;21.250;2022-11-15T02:17:19;5.40;99.90
59311;DHT22;45078;51.654;21.250;2022-11-15T02:26:18;5.50;99.90
59311;DHT22;45078;51.654;21.250;2022-11-15T02:29:06;5.40;99.90
59311;DHT22;45078;51.654;21.250;2022-11-15T02:32:27;5.50;99.90
59311;DHT22;45078;51.654;21.250;2022-11-15T02:43:31;5.50;99.90
59311;DHT22;45078;51.654;21.250;2022-11-15T02:49:12;5.50;99.90
59311;DHT22;45078;51.654;21.250;2022-11-15T02:51:39;5.50;99.90
59311;DHT22;45078;51.654;21.250;2022-11-15T02:54:06;5.50;99.90
59311;DHT22;45078;51.654;21.250;2022-11-15T02:56:32;5.50;99.90
59311;DHT22;45078;51.654;21.250;2022-11-15T03:10:42;5.30;99.90
59311;DHT22;45078;51.654;21.250;2022-11-15T03:13:36;5.20;99.90
59311;DHT22;45078;51.654;21.250;2022-11-15T03:16:08;5.10;99.90
59311;DHT22;45078;51.654;21.250;2022-11-15T03:18:38;5.10;99.90
59311;DHT22;45078;51.654;21.250;2022-11-15T03:21:08;5.10;99.90
59311;DHT22;45078;51.654;21.250;2022-11-15T03:23:39;5.10;99.90
59311;DHT22;45078;51.654;21.250;2022-11-15T03:26:09;5.10;99.90
59311;DHT22;45078;51.654;21.250;2022-11-15T03:28:41;5.00;99.90
59311;DHT22;45078;51.654;21.250;2022-11-15T03:31:11;5.00;99.90
59311;DHT22;45078;51.654;21.250;2022-11-15T03:33:58;5.00;99.90
59311;DHT22;45078;51.654;21.250;2022-11-15T03:36:25;5.00;99.90
59311;DHT22;45078;51.654;21.250;2022-11-15T03:38:57;5.10;99.90
59311;DHT22;45078;51.654;21.250;2022-11-15T03:41:39;5.10;99.90
59311;DHT22;45078;51.654;21.250;2022-11-15T03:44:24;5.10;99.90
59311;DHT22;45078;51.654;21.250;2022-11-15T03:47:17;5.20;99.90
59311;DHT22;45078;51.654;21.250;2022-11-15T03:49:49;5.10;99.90
59311;DHT22;45078;51.654;21.250;2022-11-15T03:52:19;5.10;99.90
59311;DHT22;45078;51.654;21.250;2022-11-15T03:54:53;5.20;99.90
59311;DHT22;45078;51.654;21.250;2022-11-15T03:57:19;5.20;99.90
59311;DHT22;45078;51.654;21.250;2022-11-15T03:59:45;5.10;99.90
59311;DHT22;45078;51.654;21.250;2022-11-15T04:02:10;5.20;99.90
59311;DHT22;45078;51.654;21.250;2022-11-15T04:04:36;5.20;99.90
59311;DHT22;45078;51.654;21.250;2022-11-15T04:07:02;5.30;99.90
59311;DHT22;45078;51.654;21.250;2022-11-15T04:09:28;5.20;99.90
59311;DHT22;45078;51.654;21.250;2022-11-15T04:11:54;5.20;99.90
59311;DHT22;45078;51.654;21.250;2022-11-15T04:14:19;5.10;99.90
59311;DHT22;45078;51.654;21.250;2022-11-15T04:16:45;5.00;99.90
59311;DHT22;45078;51.654;21.250;2022-11-15T04:19:11;5.10;99.90
59311;DHT22;45078;51.654;21.250;2022-11-15T04:21:55;5.00;99.90
59311;DHT22;45078;51.654;21.250;2022-11-15T04:24:39;5.10;99.90
59311;DHT22;45078;51.654;21.250;2022-11-15T04:27:05;5.10;99.90
59311;DHT22;45078;51.654;21.250;2022-11-15T04:29:31;5.00;99.90
59311;DHT22;45078;51.654;21.250;2022-11-15T04:32:02;5.00;99.90
59311;DHT22;45078;51.654;21.250;2022-11-15T04:34:28;4.90;99.90
59311;DHT22;45078;51.654;21.250;2022-11-15T04:36:54;4.90;99.90
59311;DHT22;45078;51.654;21.250;2022-11-15T04:39:39;4.90;99.90
59311;DHT22;45078;51.654;21.250;2022-11-15T04:42:05;4.80;99.90
59311;DHT22;45078;51.654;21.250;2022-11-15T04:44:31;4.80;99.90
59311;DHT22;45078;51.654;21.250;2022-11-15T04:46:56;4.80;99.90
59311;DHT22;45078;51.654;21.250;2022-11-15T04:49:22;4.80;99.90
59311;DHT22;45078;51.654;21.250;2022-11-15T04:51:48;4.80;99.90
59311;DHT22;45078;51.654;21.250;2022-11-15T04:54:14;4.70;99.90
59311;DHT22;45078;51.654;21.250;2022-11-15T04:56:40;4.80;99.90
59311;DHT22;45078;51.654;21.250;2022-11-15T04:59:06;4.70;99.90
59311;DHT22;45078;51.654;21.250;2022-11-15T05:01:31;4.70;99.90
59311;DHT22;45078;51.654;21.250;2022-11-15T05:03:57;4.70;99.90
59311;DHT22;45078;51.654;21.250;2022-11-15T05:06:41;4.70;99.90
59311;DHT22;45078;51.654;21.250;2022-11-15T05:09:07;4.70;99.90
59311;DHT22;45078;51.654;21.250;2022-11-15T05:11:33;4.70;99.90
59311;DHT22;45078;51.654;21.250;2022-11-15T05:13:59;4.70;99.90
59311;DHT22;45078;51.654;21.250;2022-11-15T05:16:25;4.70;99.90
59311;DHT22;45078;51.654;21.250;2022-11-15T05:18:52;4.70;99.90
59311;DHT22;45078;51.654;21.250;2022-11-15T05:21:18;4.70;99.90
59311;DHT22;45078;51.654;21.250;2022-11-15T05:23:44;4.70;99.90
59311;DHT22;45078;51.654;21.250;2022-11-15T05:26:10;4.70;99.90
59311;DHT22;45078;51.654;21.250;2022-11-15T05:28:37;4.70;99.90
59311;DHT22;45078;51.654;21.250;2022-11-15T05:31:04;4.60;99.90
59311;DHT22;45078;51.654;21.250;2022-11-15T05:33:31;4.60;99.90
59311;DHT22;45078;51.654;21.250;2022-11-15T05:36:02;4.50;99.90
59311;DHT22;45078;51.654;21.250;2022-11-15T05:38:29;4.50;99.90
59311;DHT22;45078;51.654;21.250;2022-11-15T05:40:55;4.40;99.90
59311;DHT22;45078;51.654;21.250;2022-11-15T05:43:21;4.40;99.90
59311;DHT22;45078;51.654;21.250;2022-11-15T05:45:48;4.40;99.90
59311;DHT22;45078;51.654;21.250;2022-11-15T05:48:14;4.40;99.90
59311;DHT22;45078;51.654;21.250;2022-11-15T05:50:43;4.40;99.90
59311;DHT22;45078;51.654;21.250;2022-11-15T05:53:11;4.40;99.90
59311;DHT22;45078;51.654;21.250;2022-11-15T05:55:39;4.40;99.90
59311;DHT22;45078;51.654;21.250;2022-11-15T05:58:05;4.50;99.90
59311;DHT22;45078;51.654;21.250;2022-11-15T06:00:31;4.40;99.90
59311;DHT22;45078;51.654;21.250;2022-11-15T06:02:57;4.40;99.90
59311;DHT22;45078;51.654;21.250;2022-11-15T06:05:22;4.40;99.90
59311;DHT22;45078;51.654;21.250;2022-11-15T06:07:48;4.40;99.90
59311;DHT22;45078;51.654;21.250;2022-11-15T06:10:14;4.40;99.90
59311;DHT22;45078;51.654;21.250;2022-11-15T06:12:40;4.40;99.90
59311;DHT22;45078;51.654;21.250;2022-11-15T06:15:06;4.50;99.90
59311;DHT22;45078;51.654;21.250;2022-11-15T06:17:32;4.50;99.90
59311;DHT22;45078;51.654;21.250;2022-11-15T06:19:58;4.60;99.90
59311;DHT22;45078;51.654;21.250;2022-11-15T06:22:23;4.70;99.90
59311;DHT22;45078;51.654;21.250;2022-11-15T06:24:49;4.60;99.90
59311;DHT22;45078;51.654;21.250;2022-11-15T06:27:15;4.60;99.90
59311;DHT22;45078;51.654;21.250;2022-11-15T06:29:41;4.50;99.90
59311;DHT22;45078;51.654;21.250;2022-11-15T06:32:07;4.50;99.90
59311;DHT22;45078;51.654;21.250;2022-11-15T06:34:33;4.60;99.90
59311;DHT22;45078;51.654;21.250;2022-11-15T06:36:59;4.60;99.90
59311;DHT22;45078;51.654;21.250;2022-11-15T06:39:24;4.60;99.90
59311;DHT22;45078;51.654;21.250;2022-11-15T06:41:50;4.60;99.90
59311;DHT22;45078;51.654;21.250;2022-11-15T06:44:16;4.70;99.90
59311;DHT22;45078;51.654;21.250;2022-11-15T06:46:42;4.70;99.90
59311;DHT22;45078;51.654;21.250;2022-11-15T06:49:07;4.70;99.90
59311;DHT22;45078;51.654;21.250;2022-11-15T06:51:33;4.70;99.90
59311;DHT22;45078;51.654;21.250;2022-11-15T06:53:59;4.70;99.90
59311;DHT22;45078;51.654;21.250;2022-11-15T06:56:25;4.70;99.90
59311;DHT22;45078;51.654;21.250;2022-11-15T06:58:50;4.70;99.90
59311;DHT22;45078;51.654;21.250;2022-11-15T07:01:16;4.80;99.90
59311;DHT22;45078;51.654;21.250;2022-11-15T07:03:42;4.80;99.90
59311;DHT22;45078;51.654;21.250;2022-11-15T07:06:09;4.70;99.90
59311;DHT22;45078;51.654;21.250;2022-11-15T07:08:35;4.60;99.90
59311;DHT22;45078;51.654;21.250;2022-11-15T07:11:03;4.60;99.90
59311;DHT22;45078;51.654;21.250;2022-11-15T07:13:30;4.60;99.90
59311;DHT22;45078;51.654;21.250;2022-11-15T07:16:07;4.60;99.90
59311;DHT22;45078;51.654;21.250;2022-11-15T07:18:40;4.60;99.90
59311;DHT22;45078;51.654;21.250;2022-11-15T07:21:08;4.60;99.90
59311;DHT22;45078;51.654;21.250;2022-11-15T07:23:37;4.60;99.90
59311;DHT22;45078;51.654;21.250;2022-11-15T07:26:04;4.60;99.90
59311;DHT22;45078;51.654;21.250;2022-11-15T07:28:29;4.70;99.90
59311;DHT22;45078;51.654;21.250;2022-11-15T07:30:55;4.80;99.90
59311;DHT22;45078;51.654;21.250;2022-11-15T07:33:21;4.70;99.90
59311;DHT22;45078;51.654;21.250;2022-11-15T07:35:47;4.60;99.90
59311;DHT22;45078;51.654;21.250;2022-11-15T07:38:17;4.70;99.90
59311;DHT22;45078;51.654;21.250;2022-11-15T07:40:46;4.70;99.90
59311;DHT22;45078;51.654;21.250;2022-11-15T07:43:12;4.60;99.90
59311;DHT22;45078;51.654;21.250;2022-11-15T07:45:45;4.60;99.90
59311;DHT22;45078;51.654;21.250;2022-11-15T07:48:11;4.60;99.90
59311;DHT22;45078;51.654;21.250;2022-11-15T07:50:40;4.60;99.90
59311;DHT22;45078;51.654;21.250;2022-11-15T07:53:08;4.70;99.90
59311;DHT22;45078;51.654;21.250;2022-11-15T07:55:34;4.70;99.90
59311;DHT22;45078;51.654;21.250;2022-11-15T07:58:04;4.70;99.90
59311;DHT22;45078;51.654;21.250;2022-11-15T08:00:30;4.60;99.90
59311;DHT22;45078;51.654;21.250;2022-11-15T08:03:08;4.70;99.90
59311;DHT22;45078;51.654;21.250;2022-11-15T08:05:35;4.70;99.90
59311;DHT22;45078;51.654;21.250;2022-11-15T08:08:01;4.60;99.90
59311;DHT22;45078;51.654;21.250;2022-11-15T08:10:28;4.60;99.90
59311;DHT22;45078;51.654;21.250;2022-11-15T08:13:04;4.70;99.90
59311;DHT22;45078;51.654;21.250;2022-11-15T08:15:32;4.70;99.90
59311;DHT22;45078;51.654;21.250;2022-11-15T08:17:59;4.70;99.90
59311;DHT22;45078;51.654;21.250;2022-11-15T08:20:27;4.70;99.90
59311;DHT22;45078;51.654;21.250;2022-11-15T08:23:00;4.80;99.90
59311;DHT22;45078;51.654;21.250;2022-11-15T08:25:27;4.90;99.90
59311;DHT22;45078;51.654;21.250;2022-11-15T08:27:55;5.00;99.90
59311;DHT22;45078;51.654;21.250;2022-11-15T08:30:21;5.00;99.90
59311;DHT22;45078;51.654;21.250;2022-11-15T08:32:48;5.00;99.90
59311;DHT22;45078;51.654;21.250;2022-11-15T08:35:15;5.00;99.90
59311;DHT22;45078;51.654;21.250;2022-11-15T08:37:41;5.00;99.90
59311;DHT22;45078;51.654;21.250;2022-11-15T08:40:07;5.00;99.90
59311;DHT22;45078;51.654;21.250;2022-11-15T08:42:33;5.10;99.90
59311;DHT22;45078;51.654;21.250;2022-11-15T08:44:59;5.10;99.90
59311;DHT22;45078;51.654;21.250;2022-11-15T08:47:24;5.10;99.90
59311;DHT22;45078;51.654;21.250;2022-11-15T08:49:50;5.10;99.90
59311;DHT22;45078;51.654;21.250;2022-11-15T08:52:16;5.10;99.90
59311;DHT22;45078;51.654;21.250;2022-11-15T08:54:42;5.10;99.90
59311;DHT22;45078;51.654;21.250;2022-11-15T08:57:08;5.10;99.90
59311;DHT22;45078;51.654;21.250;2022-11-15T08:59:35;5.10;99.90
59311;DHT22;45078;51.654;21.250;2022-11-15T09:02:01;5.00;99.90
59311;DHT22;45078;51.654;21.250;2022-11-15T09:04:28;5.00;99.90
59311;DHT22;45078;51.654;21.250;2022-11-15T09:06:53;5.00;99.90
59311;DHT22;45078;51.654;21.250;2022-11-15T09:09:19;5.10;99.90
59311;DHT22;45078;51.654;21.250;2022-11-15T09:11:45;5.10;99.90
59311;DHT22;45078;51.654;21.250;2022-11-15T09:14:14;5.10;99.90
59311;DHT22;45078;51.654;21.250;2022-11-15T09:16:40;5.10;99.90
59311;DHT22;45078;51.654;21.250;2022-11-15T09:19:06;5.20;99.90
59311;DHT22;45078;51.654;21.250;2022-11-15T09:21:32;5.20;99.90
59311;DHT22;45078;51.654;21.250;2022-11-15T09:23:58;5.20;99.90
59311;DHT22;45078;51.654;21.250;2022-11-15T09:26:24;5.30;99.90
59311;DHT22;45078;51.654;21.250;2022-11-15T09:28:50;5.30;99.90
59311;DHT22;45078;51.654;21.250;2022-11-15T09:31:16;5.30;99.90
59311;DHT22;45078;51.654;21.250;2022-11-15T09:33:45;5.30;99.90
59311;DHT22;45078;51.654;21.250;2022-11-15T09:36:11;5.30;99.90
59311;DHT22;45078;51.654;21.250;2022-11-15T09:38:37;5.50;99.90
59311;DHT22;45078;51.654;21.250;2022-11-15T09:46:49;5.70;99.90
59311;DHT22;45078;51.654;21.250;2022-11-15T09:49:19;5.70;99.90
59311;DHT22;45078;51.654;21.250;2022-11-15T09:51:50;5.70;99.90
59311;DHT22;45078;51.654;21.250;2022-11-15T09:54:36;5.70;99.90
59311;DHT22;45078;51.654;21.250;2022-11-15T09:57:24;5.70;99.90
59311;DHT22;45078;51.654;21.250;2022-11-15T10:00:04;5.80;99.90
59311;DHT22;45078;51.654;21.250;2022-11-15T10:05:28;5.90;99.90
59311;DHT22;45078;51.654;21.250;2022-11-15T10:08:05;6.00;99.90
59311;DHT22;45078;51.654;21.250;2022-11-15T10:10:56;6.00;99.90
59311;DHT22;45078;51.654;21.250;2022-11-15T10:13:41;6.10;99.90
59311;DHT22;45078;51.654;21.250;2022-11-15T10:27:40;6.30;99.90
59311;DHT22;45078;51.654;21.250;2022-11-15T10:30:13;6.20;99.90
59311;DHT22;45078;51.654;21.250;2022-11-15T10:32:40;6.30;99.90
59311;DHT22;45078;51.654;21.250;2022-11-15T10:35:29;6.30;99.90
59311;DHT22;45078;51.654;21.250;2022-11-15T10:38:11;6.40;99.90
59311;DHT22;45078;51.654;21.250;2022-11-15T10:40:39;6.40;99.90
59311;DHT22;45078;51.654;21.250;2022-11-15T10:45:37;6.40;99.90
59311;DHT22;45078;51.654;21.250;2022-11-15T10:48:23;6.40;99.90
59311;DHT22;45078;51.654;21.250;2022-11-15T10:50:50;6.40;99.90
59311;DHT22;45078;51.654;21.250;2022-11-15T10:53:36;6.50;99.90
59311;DHT22;45078;51.654;21.250;2022-11-15T10:56:08;6.50;99.90
59311;DHT22;45078;51.654;21.250;2022-11-15T10:58:49;6.60;99.90
59311;DHT22;45078;51.654;21.250;2022-11-15T11:03:43;6.60;99.90
59311;DHT22;45078;51.654;21.250;2022-11-15T11:06:14;6.60;99.90
59311;DHT22;45078;51.654;21.250;2022-11-15T11:09:03;6.50;99.90
59311;DHT22;45078;51.654;21.250;2022-11-15T11:11:49;6.50;99.90
59311;DHT22;45078;51.654;21.250;2022-11-15T11:34:04;6.70;99.90
59311;DHT22;45078;51.654;21.250;2022-11-15T11:36:40;6.90;99.90
59311;DHT22;45078;51.654;21.250;2022-11-15T11:39:43;6.90;99.90
59311;DHT22;45078;51.654;21.250;2022-11-15T11:42:15;7.00;99.90
59311;DHT22;45078;51.654;21.250;2022-11-15T11:47:47;7.00;99.90
59311;DHT22;45078;51.654;21.250;2022-11-15T11:50:22;6.90;99.90
59311;DHT22;45078;51.654;21.250;2022-11-15T11:53:00;7.00;99.90
59311;DHT22;45078;51.654;21.250;2022-11-15T11:55:47;7.00;99.90
59311;DHT22;45078;51.654;21.250;2022-11-15T12:01:43;6.90;99.90
59311;DHT22;45078;51.654;21.250;2022-11-15T12:07:25;7.00;99.90
59311;DHT22;45078;51.654;21.250;2022-11-15T12:12:58;7.20;99.90
59311;DHT22;45078;51.654;21.250;2022-11-15T12:15:32;7.30;99.90
59311;DHT22;45078;51.654;21.250;2022-11-15T12:18:01;7.40;99.90
59311;DHT22;45078;51.654;21.250;2022-11-15T12:20:34;7.40;99.90
59311;DHT22;45078;51.654;21.250;2022-11-15T12:25:49;7.60;99.90
59311;DHT22;45078;51.654;21.250;2022-11-15T12:31:05;8.10;99.90
59311;DHT22;45078;51.654;21.250;2022-11-15T12:33:48;8.30;99.90
59311;DHT22;45078;51.654;21.250;2022-11-15T12:41:25;8.80;99.90
59311;DHT22;45078;51.654;21.250;2022-11-15T12:43:51;8.80;99.90
59311;DHT22;45078;51.654;21.250;2022-11-15T12:46:58;8.90;99.90
59311;DHT22;45078;51.654;21.250;2022-11-15T12:59:56;10.40;99.90
59311;DHT22;45078;51.654;21.250;2022-11-15T13:02:26;10.90;99.90
59311;DHT22;45078;51.654;21.250;2022-11-15T13:05:56;11.30;99.90
59311;DHT22;45078;51.654;21.250;2022-11-15T13:17:44;15.10;99.90
59311;DHT22;45078;51.654;21.250;2022-11-15T13:27:50;15.50;99.90
59311;DHT22;45078;51.654;21.250;2022-11-15T13:30:21;15.30;99.90
59311;DHT22;45078;51.654;21.250;2022-11-15T13:32:48;15.20;99.90
59311;DHT22;45078;51.654;21.250;2022-11-15T13:35:40;15.50;99.90
59311;DHT22;45078;51.654;21.250;2022-11-15T13:38:17;15.70;99.90
59311;DHT22;45078;51.654;21.250;2022-11-15T13:40:44;15.00;99.90
59311;DHT22;45078;51.654;21.250;2022-11-15T13:46:13;14.80;99.90
59311;DHT22;45078;51.654;21.250;2022-11-15T13:48:41;14.70;99.90
59311;DHT22;45078;51.654;21.250;2022-11-15T13:51:22;14.60;99.90
59311;DHT22;45078;51.654;21.250;2022-11-15T13:56:27;14.30;99.90
59311;DHT22;45078;51.654;21.250;2022-11-15T13:58:54;13.70;99.90
59311;DHT22;45078;51.654;21.250;2022-11-15T14:01:21;13.80;99.90
59311;DHT22;45078;51.654;21.250;2022-11-15T14:03:52;13.60;99.90
59311;DHT22;45078;51.654;21.250;2022-11-15T14:06:20;13.20;99.90
59311;DHT22;45078;51.654;21.250;2022-11-15T14:11:35;11.60;99.90
59311;DHT22;45078;51.654;21.250;2022-11-15T14:14:14;10.90;99.90
59311;DHT22;45078;51.654;21.250;2022-11-15T14:16:52;10.40;99.90
59311;DHT22;45078;51.654;21.250;2022-11-15T14:22:13;9.50;99.90
59311;DHT22;45078;51.654;21.250;2022-11-15T14:24:40;9.10;99.90
59311;DHT22;45078;51.654;21.250;2022-11-15T14:29:41;8.60;99.90
59311;DHT22;45078;51.654;21.250;2022-11-15T14:32:30;8.30;99.90
59311;DHT22;45078;51.654;21.250;2022-11-15T14:35:03;8.10;99.90
59311;DHT22;45078;51.654;21.250;2022-11-15T14:37:31;7.90;99.90
59311;DHT22;45078;51.654;21.250;2022-11-15T14:40:02;7.70;99.90
59311;DHT22;45078;51.654;21.250;2022-11-15T14:42:28;7.40;99.90
59311;DHT22;45078;51.654;21.250;2022-11-15T14:44:54;7.30;99.90
59311;DHT22;45078;51.654;21.250;2022-11-15T14:47:20;7.00;99.90
59311;DHT22;45078;51.654;21.250;2022-11-15T14:49:46;6.90;99.90
59311;DHT22;45078;51.654;21.250;2022-11-15T14:52:31;6.70;99.90
59311;DHT22;45078;51.654;21.250;2022-11-15T14:55:01;6.60;99.90
59311;DHT22;45078;51.654;21.250;2022-11-15T14:57:28;6.40;99.90
59311;DHT22;45078;51.654;21.250;2022-11-15T14:59:54;6.40;99.90
59311;DHT22;45078;51.654;21.250;2022-11-15T15:02:22;6.20;99.90
59311;DHT22;45078;51.654;21.250;2022-11-15T15:04:49;6.10;99.90
59311;DHT22;45078;51.654;21.250;2022-11-15T15:07:15;6.00;99.90
59311;DHT22;45078;51.654;21.250;2022-11-15T15:09:42;5.90;99.90
59311;DHT22;45078;51.654;21.250;2022-11-15T15:12:22;5.70;99.90
59311;DHT22;45078;51.654;21.250;2022-11-15T15:14:49;5.70;99.90
59311;DHT22;45078;51.654;21.250;2022-11-15T15:17:16;5.50;99.90
59311;DHT22;45078;51.654;21.250;2022-11-15T15:19:43;5.30;99.90
59311;DHT22;45078;51.654;21.250;2022-11-15T15:22:17;5.10;99.90
59311;DHT22;45078;51.654;21.250;2022-11-15T15:24:44;5.00;99.90
59311;DHT22;45078;51.654;21.250;2022-11-15T15:27:11;4.90;99.90
59311;DHT22;45078;51.654;21.250;2022-11-15T15:29:38;4.80;99.90
59311;DHT22;45078;51.654;21.250;2022-11-15T15:32:04;4.70;99.90
59311;DHT22;45078;51.654;21.250;2022-11-15T15:34:30;4.60;99.90
59311;DHT22;45078;51.654;21.250;2022-11-15T15:37:22;4.50;99.90
59311;DHT22;45078;51.654;21.250;2022-11-15T15:39:50;4.40;99.90
59311;DHT22;45078;51.654;21.250;2022-11-15T15:42:17;4.40;99.90
59311;DHT22;45078;51.654;21.250;2022-11-15T15:44:43;4.40;99.90
59311;DHT22;45078;51.654;21.250;2022-11-15T15:47:17;4.40;99.90
59311;DHT22;45078;51.654;21.250;2022-11-15T15:49:44;4.30;99.90
59311;DHT22;45078;51.654;21.250;2022-11-15T15:52:10;4.30;99.90
59311;DHT22;45078;51.654;21.250;2022-11-15T15:54:37;4.10;99.90
59311;DHT22;45078;51.654;21.250;2022-11-15T15:57:05;4.10;99.90
59311;DHT22;45078;51.654;21.250;2022-11-15T15:59:31;4.20;99.90
59311;DHT22;45078;51.654;21.250;2022-11-15T16:01:57;4.20;99.90
59311;DHT22;45078;51.654;21.250;2022-11-15T16:04:23;4.20;99.90
59311;DHT22;45078;51.654;21.250;2022-11-15T16:06:49;4.30;99.90
59311;DHT22;45078;51.654;21.250;2022-11-15T16:09:19;4.40;99.90
59311;DHT22;45078;51.654;21.250;2022-11-15T16:12:05;4.50;99.90
59311;DHT22;45078;51.654;21.250;2022-11-15T16:14:31;4.60;99.90
59311;DHT22;45078;51.654;21.250;2022-11-15T16:16:57;4.70;99.90
59311;DHT22;45078;51.654;21.250;2022-11-15T16:19:23;4.80;99.90
59311;DHT22;45078;51.654;21.250;2022-11-15T16:21:49;4.90;99.90
59311;DHT22;45078;51.654;21.250;2022-11-15T16:24:15;5.00;99.90
59311;DHT22;45078;51.654;21.250;2022-11-15T16:26:41;5.00;99.90
59311;DHT22;45078;51.654;21.250;2022-11-15T16:29:08;5.10;99.90
59311;DHT22;45078;51.654;21.250;2022-11-15T16:31:35;5.10;99.90
59311;DHT22;45078;51.654;21.250;2022-11-15T16:34:01;5.20;99.90
59311;DHT22;45078;51.654;21.250;2022-11-15T16:36:28;5.20;99.90
59311;DHT22;45078;51.654;21.250;2022-11-15T16:38:55;5.20;99.90
59311;DHT22;45078;51.654;21.250;2022-11-15T16:41:21;5.20;99.90
59311;DHT22;45078;51.654;21.250;2022-11-15T16:43:48;5.30;99.90
59311;DHT22;45078;51.654;21.250;2022-11-15T16:46:24;5.30;99.90
59311;DHT22;45078;51.654;21.250;2022-11-15T16:48:50;5.40;99.90
59311;DHT22;45078;51.654;21.250;2022-11-15T16:51:16;5.40;99.90
59311;DHT22;45078;51.654;21.250;2022-11-15T16:53:43;5.40;99.90
59311;DHT22;45078;51.654;21.250;2022-11-15T16:58:49;5.40;99.90
59311;DHT22;45078;51.654;21.250;2022-11-15T17:01:26;5.50;99.90
59311;DHT22;45078;51.654;21.250;2022-11-15T17:03:53;5.50;99.90
59311;DHT22;45078;51.654;21.250;2022-11-15T17:06:19;5.50;99.90
59311;DHT22;45078;51.654;21.250;2022-11-15T17:08:46;5.60;99.90
59311;DHT22;45078;51.654;21.250;2022-11-15T17:11:20;5.60;99.90
59311;DHT22;45078;51.654;21.250;2022-11-15T17:13:47;5.60;99.90
59311;DHT22;45078;51.654;21.250;2022-11-15T17:16:15;5.60;99.90
59311;DHT22;45078;51.654;21.250;2022-11-15T17:18:42;5.60;99.90
59311;DHT22;45078;51.654;21.250;2022-11-15T17:21:14;5.60;99.90
59311;DHT22;45078;51.654;21.250;2022-11-15T17:23:40;5.60;99.90
59311;DHT22;45078;51.654;21.250;2022-11-15T17:26:08;5.70;99.90
59311;DHT22;45078;51.654;21.250;2022-11-15T17:28:36;5.70;99.90
59311;DHT22;45078;51.654;21.250;2022-11-15T17:31:06;5.70;99.90
59311;DHT22;45078;51.654;21.250;2022-11-15T17:33:32;5.70;99.90
59311;DHT22;45078;51.654;21.250;2022-11-15T17:36:00;5.70;99.90
59311;DHT22;45078;51.654;21.250;2022-11-15T17:38:27;5.80;99.90
59311;DHT22;45078;51.654;21.250;2022-11-15T17:41:06;5.80;99.90
59311;DHT22;45078;51.654;21.250;2022-11-15T17:43:35;5.70;99.90
59311;DHT22;45078;51.654;21.250;2022-11-15T17:46:05;5.80;99.90
59311;DHT22;45078;51.654;21.250;2022-11-15T17:48:31;5.80;99.90
59311;DHT22;45078;51.654;21.250;2022-11-15T17:50:59;5.80;99.90
59311;DHT22;45078;51.654;21.250;2022-11-15T17:53:25;5.80;99.90
59311;DHT22;45078;51.654;21.250;2022-11-15T17:55:51;5.80;99.90
59311;DHT22;45078;51.654;21.250;2022-11-15T17:58:18;5.80;99.90
59311;DHT22;45078;51.654;21.250;2022-11-15T18:00:47;5.80;99.90
59311;DHT22;45078;51.654;21.250;2022-11-15T18:03:13;5.80;99.90
59311;DHT22;45078;51.654;21.250;2022-11-15T18:05:39;5.80;99.90
59311;DHT22;45078;51.654;21.250;2022-11-15T18:08:09;5.80;99.90